Time;durP1;ratioP1;P1;durP2;ratioP2;P2;SDS_P1;SDS_P2;PMS_P1;PMS_P2;Temp;Humidity;BMP_temperature;BMP_pressure;BME280_temperature;BME280_humidity;BME280_pressure;Samples;Min_cycle;Max_cycle;Signal;HPM_P1;HPM_P2
2021/10/03 00:00:30;;;;;;;4.20;3.20;;;;;;;18.42;61.07;98696.06;5059822;28;20477;-68
2021/10/03 00:02:58;;;;;;;3.80;3.40;;;;;;;18.57;61.16;98715.38;5061263;28;20463;-68
2021/10/03 00:05:26;;;;;;;4.70;3.10;;;;;;;18.49;61.38;98715.72;5069744;28;20610;-69
2021/10/03 00:07:57;;;;;;;3.70;3.30;;;;;;;18.50;61.34;98717.38;5064354;28;20480;-69
2021/10/03 00:10:25;;;;;;;4.53;3.43;;;;;;;18.36;61.68;98697.78;5067305;28;20449;-68
2021/10/03 00:12:53;;;;;;;3.90;3.03;;;;;;;18.54;61.50;98699.63;5060382;28;20459;-69
2021/10/03 00:15:22;;;;;;;3.27;2.97;;;;;;;18.56;61.15;98710.22;5068309;28;20486;-68
2021/10/03 00:17:49;;;;;;;4.70;4.17;;;;;;;18.50;61.29;98705.72;5079945;28;20475;-69
2021/10/03 00:20:17;;;;;;;4.13;3.60;;;;;;;18.55;61.18;98697.75;5070582;28;20456;-68
2021/10/03 00:22:43;;;;;;;4.00;3.10;;;;;;;18.56;60.77;98708.34;5060390;28;20507;-68
2021/10/03 00:25:13;;;;;;;3.63;3.30;;;;;;;18.78;60.80;98714.06;5066181;28;20512;-69
2021/10/03 00:27:39;;;;;;;3.70;3.30;;;;;;;18.76;60.84;98704.50;5080187;28;20460;-68
2021/10/03 00:30:09;;;;;;;4.30;3.60;;;;;;;18.47;61.69;98709.72;5073033;28;20484;-68
2021/10/03 00:32:36;;;;;;;5.10;3.63;;;;;;;18.63;60.77;98714.47;5060379;28;20425;-68
2021/10/03 00:35:02;;;;;;;5.60;3.90;;;;;;;18.73;60.63;98707.66;5060735;28;21004;-68
2021/10/03 00:37:29;;;;;;;3.93;3.53;;;;;;;18.68;60.60;98700.25;5059369;28;20487;-68
2021/10/03 00:39:55;;;;;;;5.50;3.07;;;;;;;18.78;60.67;98697.81;5061501;28;20457;-68
2021/10/03 00:42:23;;;;;;;3.83;3.27;;;;;;;18.95;60.31;98702.56;5079460;28;20555;-69
2021/10/03 00:44:49;;;;;;;4.10;3.53;;;;;;;18.71;60.65;98699.78;5077711;28;21018;-69
2021/10/03 00:47:18;;;;;;;3.27;2.97;;;;;;;18.77;60.57;98709.69;5058176;28;20555;-69
2021/10/03 00:49:45;;;;;;;3.77;3.40;;;;;;;19.06;60.04;98714.47;5060414;28;20476;-69
2021/10/03 00:52:12;;;;;;;4.87;3.30;;;;;;;18.81;60.31;98699.22;5079723;28;20531;-69
2021/10/03 00:54:39;;;;;;;5.03;3.17;;;;;;;18.97;60.20;98706.72;5079150;28;20487;-68
2021/10/03 00:57:06;;;;;;;3.27;2.97;;;;;;;19.00;60.11;98691.88;5058872;28;20507;-69
2021/10/03 00:59:34;;;;;;;3.77;3.10;;;;;;;18.99;59.86;98706.44;5060326;28;20528;-69
2021/10/03 01:02:01;;;;;;;3.40;2.53;;;;;;;19.06;60.38;98707.19;5076796;28;20910;-69
2021/10/03 01:04:29;;;;;;;4.13;3.07;;;;;;;19.09;59.69;98701.28;5080217;28;20435;-69
2021/10/03 01:06:55;;;;;;;5.43;3.00;;;;;;;19.18;59.40;98707.19;5062946;28;20569;-69
2021/10/03 01:09:22;;;;;;;4.10;3.10;;;;;;;19.08;60.15;98706.94;5062959;28;20552;-69
2021/10/03 01:11:49;;;;;;;4.10;3.20;;;;;;;19.33;58.75;98704.84;5061556;28;20497;-69
2021/10/03 01:14:17;;;;;;;3.30;2.90;;;;;;;19.43;58.82;98688.00;5076416;28;20460;-69
2021/10/03 01:16:43;;;;;;;6.63;2.70;;;;;;;19.31;59.15;98688.00;5081913;28;20595;-68
2021/10/03 01:19:10;;;;;;;4.07;3.37;;;;;;;19.30;58.74;98693.63;5082851;28;20472;-68
2021/10/03 01:21:38;;;;;;;6.10;2.97;;;;;;;19.35;59.04;98701.88;5077204;28;20511;-68
2021/10/03 01:24:05;;;;;;;5.87;3.23;;;;;;;19.35;58.82;98702.69;5064664;28;20461;-68
2021/10/03 01:26:32;;;;;;;2.90;2.70;;;;;;;19.42;58.28;98688.22;5068061;28;20922;-68
2021/10/03 01:28:59;;;;;;;3.47;2.80;;;;;;;19.52;58.33;98686.56;5084756;28;20531;-68
2021/10/03 01:31:28;;;;;;;5.83;2.83;;;;;;;19.52;58.83;98683.84;5078512;28;20538;-68
2021/10/03 01:33:57;;;;;;;3.10;2.60;;;;;;;19.52;58.30;98686.56;5067347;28;20852;-68
2021/10/03 01:36:24;;;;;;;6.57;3.63;;;;;;;19.74;57.68;98680.56;5084043;28;20475;-68
2021/10/03 01:38:52;;;;;;;2.70;2.50;;;;;;;19.68;57.95;98682.28;5081729;28;20471;-68
2021/10/03 01:41:18;;;;;;;8.00;2.87;;;;;;;19.67;57.75;98675.22;5062719;28;20501;-69
2021/10/03 01:43:46;;;;;;;3.30;2.80;;;;;;;19.57;57.96;98678.53;5065399;28;21058;-68
2021/10/03 01:46:13;;;;;;;3.30;3.00;;;;;;;19.53;58.17;98684.69;5069002;28;20506;-68
2021/10/03 01:48:39;;;;;;;2.70;2.50;;;;;;;19.61;57.80;98675.34;5083994;28;20869;-68
2021/10/03 01:51:08;;;;;;;4.10;3.13;;;;;;;19.66;57.70;98676.28;5076747;28;20975;-68
2021/10/03 01:53:37;;;;;;;3.03;2.57;;;;;;;19.77;57.37;98674.63;5063448;28;20441;-68
2021/10/03 01:56:07;;;;;;;3.23;2.40;;;;;;;19.75;57.40;98677.63;5067866;28;20482;-68
2021/10/03 01:58:36;;;;;;;5.00;2.80;;;;;;;19.71;57.38;98667.44;5083581;28;20451;-68
2021/10/03 02:01:06;;;;;;;4.30;3.07;;;;;;;19.64;57.08;98674.88;5082615;28;20546;-68
2021/10/03 02:03:32;;;;;;;2.77;2.40;;;;;;;19.69;57.06;98661.44;5083489;28;20902;-68
2021/10/03 02:05:59;;;;;;;3.90;3.00;;;;;;;19.77;57.00;98671.13;5082572;28;20485;-68
2021/10/03 02:08:26;;;;;;;5.80;2.60;;;;;;;19.73;57.45;98666.13;5083598;28;20879;-68
2021/10/03 02:10:53;;;;;;;3.23;2.60;;;;;;;19.81;57.16;98681.25;5079430;28;20547;-68
2021/10/03 02:13:23;;;;;;;3.97;2.93;;;;;;;19.67;57.37;98663.53;5063445;28;20881;-68
2021/10/03 02:15:51;;;;;;;2.50;2.20;;;;;;;19.78;56.40;98653.78;5062844;28;20496;-68
2021/10/03 02:18:19;;;;;;;3.83;2.80;;;;;;;19.98;56.38;98665.06;5062652;28;20473;-68
2021/10/03 02:20:49;;;;;;;3.10;2.60;;;;;;;19.85;55.87;98646.34;5062742;28;20547;-68
2021/10/03 02:23:16;;;;;;;2.73;2.47;;;;;;;19.79;56.43;98666.25;5043405;28;20533;-68
2021/10/03 02:25:45;;;;;;;3.20;2.87;;;;;;;19.86;56.25;98656.09;5042466;28;20843;-68
2021/10/03 02:28:13;;;;;;;4.43;2.37;;;;;;;20.02;56.25;98660.78;5082266;28;20460;-68
2021/10/03 02:30:42;;;;;;;5.00;3.40;;;;;;;19.90;55.68;98666.25;5082974;28;20476;-68
2021/10/03 02:33:09;;;;;;;4.03;2.67;;;;;;;19.87;56.29;98650.44;5082447;28;20499;-69
2021/10/03 02:35:38;;;;;;;3.90;2.60;;;;;;;20.01;55.92;98672.69;5082982;28;20503;-68
2021/10/03 02:38:05;;;;;;;3.83;2.60;;;;;;;19.91;55.77;98646.19;5082187;28;21038;-69
2021/10/03 02:40:31;;;;;;;2.97;2.63;;;;;;;20.05;55.52;98673.03;5081932;28;20472;-68
2021/10/03 02:43:00;;;;;;;4.10;2.80;;;;;;;20.03;55.22;98665.16;5081869;28;20507;-68
2021/10/03 02:45:27;;;;;;;3.60;2.57;;;;;;;20.16;54.95;98671.38;5081899;28;20467;-68
2021/10/03 02:47:55;;;;;;;2.73;2.53;;;;;;;20.12;55.01;98679.16;5081792;28;20482;-68
2021/10/03 02:50:22;;;;;;;2.37;2.17;;;;;;;20.26;54.37;98680.50;5081867;28;20451;-68
2021/10/03 02:52:49;;;;;;;3.90;2.83;;;;;;;20.25;54.50;98670.72;5069089;28;20441;-68
2021/10/03 02:55:15;;;;;;;2.73;2.40;;;;;;;20.37;54.33;98683.44;5061899;28;20553;-68
2021/10/03 02:57:42;;;;;;;4.20;2.53;;;;;;;20.21;54.31;98683.13;5062118;28;20520;-68
2021/10/03 03:00:10;;;;;;;3.70;2.70;;;;;;;20.19;54.43;98666.28;5045547;28;20538;-68
2021/10/03 03:02:37;;;;;;;3.30;2.63;;;;;;;20.44;54.15;98682.19;5042946;28;20576;-69
2021/10/03 03:05:08;;;;;;;3.07;2.53;;;;;;;20.28;54.05;98672.94;5062465;28;20452;-68
2021/10/03 03:07:35;;;;;;;5.43;2.73;;;;;;;20.37;53.93;98684.25;5082394;28;20530;-68
2021/10/03 03:10:01;;;;;;;2.70;2.20;;;;;;;20.25;54.26;98672.63;5081083;28;20515;-69
2021/10/03 03:12:28;;;;;;;2.73;2.50;;;;;;;20.31;54.14;98664.31;5082003;28;20525;-68
2021/10/03 03:14:55;;;;;;;3.03;2.60;;;;;;;20.16;54.38;98674.88;5080257;28;20464;-68
2021/10/03 03:17:24;;;;;;;2.80;2.53;;;;;;;20.25;54.47;98662.56;5041882;28;20484;-69
2021/10/03 03:19:51;;;;;;;5.23;2.97;;;;;;;20.07;54.83;98660.06;5054789;28;20531;-68
2021/10/03 03:22:19;;;;;;;3.00;2.70;;;;;;;20.07;55.27;98655.47;5069775;28;20509;-68
2021/10/03 03:24:45;;;;;;;6.07;2.73;;;;;;;20.07;54.75;98654.66;5066399;28;20471;-69
2021/10/03 03:27:12;;;;;;;4.40;3.00;;;;;;;20.02;55.15;98643.69;5081402;28;20544;-68
2021/10/03 03:29:39;;;;;;;4.97;2.67;;;;;;;20.13;55.19;98668.03;5080402;28;20520;-68
2021/10/03 03:32:06;;;;;;;5.67;3.30;;;;;;;19.93;55.90;98652.22;5081584;28;21008;-68
2021/10/03 03:34:33;;;;;;;3.50;2.83;;;;;;;19.82;55.90;98638.69;5067481;28;20501;-68
2021/10/03 03:36:59;;;;;;;2.50;2.30;;;;;;;19.95;55.63;98641.13;5061204;28;21184;-68
2021/10/03 03:39:28;;;;;;;4.50;2.90;;;;;;;20.16;55.60;98657.78;5061161;28;20516;-68
2021/10/03 03:41:54;;;;;;;2.83;2.30;;;;;;;19.91;56.32;98654.34;5060202;28;20481;-68
2021/10/03 03:44:21;;;;;;;3.27;2.60;;;;;;;19.89;56.44;98650.19;5062368;28;20501;-69
2021/10/03 03:46:48;;;;;;;3.77;2.40;;;;;;;19.93;56.72;98648.69;5062036;28;20477;-68
2021/10/03 03:49:14;;;;;;;3.80;2.67;;;;;;;19.85;56.82;98649.88;5061668;28;20488;-68
2021/10/03 03:51:41;;;;;;;3.40;2.67;;;;;;;19.91;57.12;98653.50;5061320;28;20481;-68
2021/10/03 03:54:08;;;;;;;5.53;2.57;;;;;;;19.83;57.56;98651.19;5062569;28;20476;-69
2021/10/03 03:56:36;;;;;;;3.27;2.70;;;;;;;19.84;57.19;98648.25;5064566;28;20479;-68
2021/10/03 03:59:02;;;;;;;3.93;2.90;;;;;;;19.67;57.94;98637.28;5082049;28;20476;-68
2021/10/03 04:01:29;;;;;;;5.87;2.70;;;;;;;19.82;57.54;98644.09;5074733;28;20491;-68
2021/10/03 04:03:56;;;;;;;5.70;3.03;;;;;;;19.78;57.69;98646.47;5061998;28;20476;-68
2021/10/03 04:06:22;;;;;;;5.20;3.33;;;;;;;19.66;58.54;98635.63;5062681;28;20508;-68
2021/10/03 04:08:51;;;;;;;4.30;3.73;;;;;;;19.66;58.31;98638.31;5081734;28;20471;-68
2021/10/03 04:11:18;;;;;;;3.40;3.10;;;;;;;19.81;58.08;98646.00;5077082;28;20476;-68
2021/10/03 04:13:46;;;;;;;5.20;3.40;;;;;;;19.63;58.42;98646.94;5062310;28;20516;-68
2021/10/03 04:16:13;;;;;;;3.90;3.13;;;;;;;19.65;58.64;98647.53;5078503;28;20502;-68
2021/10/03 04:18:39;;;;;;;3.10;2.70;;;;;;;19.65;58.54;98652.97;5080375;28;20549;-69
2021/10/03 04:21:06;;;;;;;4.20;3.33;;;;;;;19.59;59.01;98655.81;5080906;28;20571;-68
2021/10/03 04:23:32;;;;;;;3.63;3.30;;;;;;;19.57;58.91;98654.16;5080548;28;20500;-69
2021/10/03 04:25:59;;;;;;;5.97;3.70;;;;;;;19.67;58.98;98652.69;5080160;28;20512;-68
2021/10/03 04:28:26;;;;;;;6.10;3.50;;;;;;;19.68;58.75;98640.81;5074478;28;20445;-68
2021/10/03 04:30:54;;;;;;;5.63;3.47;;;;;;;19.57;59.04;98648.72;5060714;28;20483;-68
2021/10/03 04:33:21;;;;;;;4.40;3.97;;;;;;;19.52;59.27;98651.31;5066690;28;20432;-68
2021/10/03 04:35:48;;;;;;;4.23;3.27;;;;;;;19.55;59.39;98650.84;5080575;28;20563;-69
2021/10/03 04:38:14;;;;;;;3.67;3.33;;;;;;;19.60;59.49;98666.41;5077212;28;20516;-68
2021/10/03 04:40:41;;;;;;;5.13;3.50;;;;;;;19.44;60.13;98656.28;5060565;28;20496;-68
2021/10/03 04:43:08;;;;;;;4.23;3.50;;;;;;;19.42;60.12;98659.22;5067305;28;20477;-68
2021/10/03 04:45:35;;;;;;;4.47;4.07;;;;;;;19.27;60.93;98665.16;5084969;28;20538;-68
2021/10/03 04:48:03;;;;;;;3.87;3.50;;;;;;;19.23;61.73;98663.13;5085418;28;20479;-68
2021/10/03 04:50:30;;;;;;;4.80;4.13;;;;;;;19.17;62.41;98662.19;5084345;28;20490;-68
2021/10/03 04:52:57;;;;;;;6.47;4.27;;;;;;;19.16;62.68;98650.53;5085903;28;20439;-68
2021/10/03 04:55:23;;;;;;;5.03;4.00;;;;;;;18.92;63.30;98665.13;5064755;28;20448;-68
2021/10/03 04:57:50;;;;;;;6.73;4.30;;;;;;;18.83;63.75;98661.94;5065633;28;20467;-68
2021/10/03 05:00:17;;;;;;;5.13;4.63;;;;;;;18.82;63.75;98652.19;5081448;28;20506;-67
2021/10/03 05:02:44;;;;;;;5.23;4.73;;;;;;;18.94;64.19;98652.16;5074404;28;20540;-68
2021/10/03 05:05:12;;;;;;;5.30;4.50;;;;;;;18.74;64.52;98655.19;5064367;28;20460;-68
2021/10/03 05:07:38;;;;;;;5.00;4.47;;;;;;;18.78;64.24;98664.47;5074635;28;20456;-68
2021/10/03 05:10:06;;;;;;;5.20;4.50;;;;;;;19.02;64.20;98654.53;5083471;28;20487;-68
2021/10/03 05:12:33;;;;;;;4.80;4.17;;;;;;;18.85;64.34;98653.56;5073010;28;20479;-68
2021/10/03 05:14:59;;;;;;;5.47;4.97;;;;;;;18.64;65.01;98655.75;5065128;28;20483;-69
2021/10/03 05:17:26;;;;;;;5.13;4.47;;;;;;;18.73;64.57;98645.41;5075131;28;20484;-68
2021/10/03 05:19:52;;;;;;;5.30;4.37;;;;;;;18.63;65.26;98644.09;5084449;28;20455;-69
2021/10/03 05:22:22;;;;;;;7.43;5.40;;;;;;;18.70;64.72;98643.19;5082318;28;20507;-68
2021/10/03 05:24:49;;;;;;;5.47;4.70;;;;;;;18.73;63.78;98640.84;5084861;28;20435;-68
2021/10/03 05:27:15;;;;;;;9.33;4.90;;;;;;;18.90;63.88;98645.56;5073867;28;20572;-68
2021/10/03 05:29:42;;;;;;;9.60;5.87;;;;;;;18.84;63.50;98647.34;5064770;28;20473;-68
2021/10/03 05:32:08;;;;;;;7.57;5.97;;;;;;;18.78;64.34;98637.41;5072800;28;20491;-68
2021/10/03 05:34:35;;;;;;;7.00;4.77;;;;;;;18.85;63.57;98634.63;5085074;28;20469;-68
2021/10/03 05:37:02;;;;;;;6.17;5.57;;;;;;;18.70;63.95;98648.59;5082762;28;20485;-73
2021/10/03 05:39:30;;;;;;;6.33;4.90;;;;;;;18.92;63.81;98640.75;5084304;28;20524;-75
2021/10/03 05:41:56;;;;;;;6.93;5.50;;;;;;;18.96;63.25;98640.06;5075946;28;20508;-76
2021/10/03 05:44:23;;;;;;;6.40;5.80;;;;;;;18.85;63.65;98638.16;5064922;28;20739;-77
2021/10/03 05:46:49;;;;;;;5.80;5.27;;;;;;;18.94;63.23;98635.91;5069180;28;21045;-76
2021/10/03 05:49:16;;;;;;;7.10;5.63;;;;;;;18.84;63.18;98641.94;5084203;28;20559;-75
2021/10/03 05:51:43;;;;;;;7.90;6.00;;;;;;;18.91;61.93;98639.94;5073013;28;20556;-75
2021/10/03 05:54:09;;;;;;;7.33;5.57;;;;;;;19.00;62.09;98637.69;5075890;28;20433;-74
2021/10/03 05:56:37;;;;;;;6.77;4.80;;;;;;;19.16;61.85;98634.25;5063338;28;20476;-75
2021/10/03 05:59:06;;;;;;;7.07;5.73;;;;;;;19.04;61.85;98641.56;5064263;28;20469;-76
2021/10/03 06:01:33;;;;;;;6.63;5.30;;;;;;;19.24;61.67;98640.41;5063086;28;20500;-74
2021/10/03 06:03:59;;;;;;;9.00;5.23;;;;;;;19.13;61.17;98642.88;5067764;28;20499;-75
2021/10/03 06:06:26;;;;;;;6.20;5.60;;;;;;;19.20;60.72;98648.19;5083611;28;21021;-75
2021/10/03 06:08:53;;;;;;;6.07;5.47;;;;;;;19.42;60.77;98647.56;5073266;28;20515;-75
2021/10/03 06:11:19;;;;;;;6.20;5.60;;;;;;;19.30;60.38;98642.16;5062396;28;21078;-75
2021/10/03 06:13:47;;;;;;;5.40;4.30;;;;;;;19.36;60.59;98646.66;5075498;28;20922;-75
2021/10/03 06:16:14;;;;;;;5.83;5.23;;;;;;;19.44;59.98;98643.53;5086793;28;20479;-74
2021/10/03 06:18:41;;;;;;;8.47;5.50;;;;;;;19.33;59.72;98647.94;5075243;28;20515;-75
2021/10/03 06:21:13;;;;;;;8.47;5.93;;;;;;;19.40;59.74;98647.00;5088096;28;20553;-78
2021/10/03 06:23:40;;;;;;;6.60;6.00;;;;;;;19.42;59.37;98628.59;5084758;28;20480;-75
2021/10/03 06:26:07;;;;;;;7.97;5.03;;;;;;;19.60;59.30;98642.00;5083025;28;20646;-70
2021/10/03 06:28:34;;;;;;;5.87;5.00;;;;;;;19.38;59.34;98653.47;5083661;28;20471;-71
2021/10/03 06:31:04;;;;;;;8.20;5.30;;;;;;;19.68;58.96;98635.38;5083440;28;20509;-70
2021/10/03 06:33:30;;;;;;;7.27;4.93;;;;;;;19.48;58.77;98643.91;5084007;28;20729;-70
2021/10/03 06:35:57;;;;;;;7.40;5.27;;;;;;;19.65;58.43;98639.41;5082515;28;21028;-69
2021/10/03 06:38:24;;;;;;;9.90;5.33;;;;;;;19.74;58.16;98648.03;5083654;28;20524;-69
2021/10/03 06:40:51;;;;;;;6.50;5.20;;;;;;;19.52;58.19;98636.94;5082677;28;20491;-69
2021/10/03 06:43:17;;;;;;;7.20;4.97;;;;;;;19.56;58.33;98644.38;5068851;28;20500;-73
2021/10/03 06:45:44;;;;;;;5.63;5.03;;;;;;;19.57;58.12;98651.44;5061702;28;20492;-71
2021/10/03 06:48:12;;;;;;;6.57;4.93;;;;;;;19.62;57.82;98647.19;5064703;28;20470;-72
2021/10/03 06:50:39;;;;;;;11.30;5.40;;;;;;;19.84;57.38;98645.53;5065716;28;20556;-71
2021/10/03 06:53:06;;;;;;;5.70;5.10;;;;;;;19.91;57.51;98646.19;5063053;28;20509;-71
2021/10/03 06:55:32;;;;;;;8.40;5.40;;;;;;;19.85;57.95;98646.34;5061844;28;20517;-71
2021/10/03 06:58:00;;;;;;;6.10;4.83;;;;;;;19.64;57.96;98645.06;5063043;28;20485;-72
2021/10/03 07:00:28;;;;;;;5.73;5.13;;;;;;;20.02;57.31;98657.25;5068496;28;20507;-72
2021/10/03 07:02:55;;;;;;;6.83;5.37;;;;;;;19.89;57.45;98652.91;5082870;28;20499;-72
2021/10/03 07:05:23;;;;;;;7.43;4.90;;;;;;;19.96;57.09;98655.50;5082573;28;20432;-72
2021/10/03 07:07:49;;;;;;;6.93;5.07;;;;;;;19.86;57.40;98664.25;5083276;28;20492;-72
2021/10/03 07:10:16;;;;;;;5.20;4.70;;;;;;;19.96;57.08;98650.88;5081955;28;20464;-72
2021/10/03 07:12:43;;;;;;;6.20;5.20;;;;;;;19.84;56.76;98650.94;5082350;28;20490;-72
2021/10/03 07:15:10;;;;;;;7.20;5.23;;;;;;;20.02;56.84;98640.97;5082753;28;20467;-72
2021/10/03 07:17:36;;;;;;;15.43;5.37;;;;;;;20.11;56.56;98661.22;5083108;28;20481;-72
2021/10/03 07:20:04;;;;;;;5.13;4.63;;;;;;;20.03;56.39;98651.59;5083141;28;20464;-72
2021/10/03 07:22:32;;;;;;;6.87;4.80;;;;;;;20.17;56.44;98664.84;5081477;28;20483;-72
2021/10/03 07:24:59;;;;;;;4.90;4.50;;;;;;;20.19;56.39;98669.00;5072260;28;20555;-72
2021/10/03 07:27:26;;;;;;;7.57;4.77;;;;;;;20.22;55.75;98673.91;5052254;28;20505;-71
2021/10/03 07:29:54;;;;;;;4.93;4.43;;;;;;;20.31;55.71;98658.91;5059112;28;20453;-72
2021/10/03 07:32:21;;;;;;;6.10;4.43;;;;;;;20.18;56.80;98667.31;5065025;28;20476;-72
2021/10/03 07:34:48;;;;;;;4.53;4.13;;;;;;;20.10;57.35;98662.28;5066544;28;20448;-72
2021/10/03 07:37:14;;;;;;;7.57;5.30;;;;;;;20.01;57.54;98664.56;5061577;28;21090;-69
2021/10/03 07:39:42;;;;;;;7.07;5.50;;;;;;;20.03;57.85;98659.72;5072051;28;20471;-69
2021/10/03 07:42:09;;;;;;;6.37;5.23;;;;;;;19.96;58.01;98663.63;5069011;28;20480;-69
2021/10/03 07:44:36;;;;;;;6.67;5.10;;;;;;;20.07;57.38;98660.06;5074320;28;20539;-69
2021/10/03 07:47:03;;;;;;;5.77;5.20;;;;;;;20.03;57.42;98672.44;5073569;28;20666;-69
2021/10/03 07:49:29;;;;;;;6.10;5.07;;;;;;;20.02;58.34;98674.34;5071913;28;20447;-75
2021/10/03 07:51:56;;;;;;;7.90;5.20;;;;;;;20.08;57.76;98670.66;5067234;28;20589;-73
2021/10/03 07:54:23;;;;;;;7.43;4.77;;;;;;;20.09;58.28;98674.22;5073184;28;20468;-73
2021/10/03 07:56:51;;;;;;;5.70;4.40;;;;;;;20.01;57.84;98664.56;5060621;28;20492;-73
2021/10/03 07:59:18;;;;;;;6.17;5.10;;;;;;;19.71;58.70;98656.59;5048755;28;20463;-74
2021/10/03 08:01:44;;;;;;;5.60;5.03;;;;;;;19.82;58.29;98650.34;5060090;28;21058;-74
2021/10/03 08:04:11;;;;;;;6.60;4.70;;;;;;;20.16;57.59;98658.59;5071856;28;20475;-73
2021/10/03 08:06:38;;;;;;;4.77;3.90;;;;;;;20.35;57.70;98661.13;5067635;28;20469;-73
2021/10/03 08:09:04;;;;;;;6.10;4.60;;;;;;;20.04;57.55;98652.41;5066613;28;20464;-73
2021/10/03 08:11:31;;;;;;;6.90;4.40;;;;;;;20.15;57.08;98667.81;5069702;28;20469;-73
2021/10/03 08:13:59;;;;;;;5.40;4.60;;;;;;;20.11;56.44;98664.75;5066260;28;20476;-73
2021/10/03 08:16:26;;;;;;;8.73;4.70;;;;;;;20.49;56.04;98667.91;5064825;28;20481;-73
2021/10/03 08:18:57;;;;;;;5.07;4.30;;;;;;;20.46;54.96;98677.34;5081265;28;20539;-73
2021/10/03 08:21:25;;;;;;;6.07;5.20;;;;;;;20.42;55.01;98673.47;5081346;28;21025;-74
2021/10/03 08:23:52;;;;;;;4.30;3.90;;;;;;;20.18;55.51;98675.47;5081718;28;20496;-74
2021/10/03 08:26:19;;;;;;;4.87;4.33;;;;;;;20.35;56.19;98669.28;5080425;28;20469;-73
2021/10/03 08:28:45;;;;;;;4.87;4.37;;;;;;;20.11;56.20;98678.31;5081929;28;20444;-73
2021/10/03 08:31:14;;;;;;;4.23;3.83;;;;;;;20.14;56.91;98693.31;5081565;28;20538;-73
2021/10/03 08:33:40;;;;;;;5.23;4.00;;;;;;;20.17;55.40;98681.94;5081840;28;20456;-73
2021/10/03 08:36:07;;;;;;;4.23;3.83;;;;;;;20.09;56.76;98682.34;5081678;28;20518;-73
2021/10/03 08:38:34;;;;;;;7.40;4.87;;;;;;;19.94;56.63;98678.25;5081949;28;20865;-74
2021/10/03 08:41:01;;;;;;;5.00;4.10;;;;;;;19.84;58.03;98686.19;5080330;28;20502;-74
2021/10/03 08:43:29;;;;;;;5.77;4.00;;;;;;;19.87;57.05;98679.47;5081088;28;20508;-74
2021/10/03 08:45:57;;;;;;;5.23;3.50;;;;;;;20.07;56.85;98689.91;5080844;28;20989;-73
2021/10/03 08:48:26;;;;;;;6.03;4.07;;;;;;;20.05;57.27;98692.03;5081185;28;20463;-73
2021/10/03 08:50:53;;;;;;;5.13;4.30;;;;;;;20.19;56.48;98701.56;5080885;28;20463;-74
2021/10/03 08:53:19;;;;;;;4.93;4.07;;;;;;;20.24;56.10;98687.22;5081481;28;20456;-73
2021/10/03 08:55:46;;;;;;;7.77;4.83;;;;;;;20.56;55.48;98698.44;5080098;28;20551;-73
2021/10/03 08:58:13;;;;;;;4.60;3.90;;;;;;;20.65;55.60;98690.75;5080670;28;21033;-74
2021/10/03 09:00:47;;;;;;;4.30;3.60;;;;;;;20.34;54.53;98689.34;5080036;28;20495;-73
2021/10/03 09:03:15;;;;;;;4.23;3.83;;;;;;;20.26;55.24;98696.78;5080888;28;20535;-74
2021/10/03 09:05:47;;;;;;;5.13;4.17;;;;;;;20.57;55.69;98697.38;5080671;28;20921;-74
2021/10/03 09:08:15;;;;;;;4.77;4.27;;;;;;;20.38;55.15;98696.75;5080979;28;20486;-74
2021/10/03 09:10:52;;;;;;;4.60;3.80;;;;;;;20.32;56.96;98692.28;5079788;28;20546;-73
2021/10/03 09:13:20;;;;;;;5.47;4.13;;;;;;;20.18;57.40;98702.59;5081212;28;20459;-74
2021/10/03 09:15:47;;;;;;;5.60;3.90;;;;;;;20.04;57.25;98693.09;5080043;28;20531;-74
2021/10/03 09:18:16;;;;;;;4.53;4.13;;;;;;;20.11;57.11;98707.34;5072212;28;20459;-74
2021/10/03 09:20:47;;;;;;;5.80;4.00;;;;;;;20.32;57.59;98711.28;5037810;28;20474;-74
2021/10/03 09:23:17;;;;;;;4.63;4.00;;;;;;;20.05;57.53;98708.28;5056818;28;20472;-74
2021/10/03 09:25:46;;;;;;;6.67;5.10;;;;;;;20.11;59.33;98713.59;5079521;28;20513;-74
2021/10/03 09:28:16;;;;;;;5.00;3.77;;;;;;;19.76;59.12;98721.81;5082377;28;20471;-74
2021/10/03 09:30:55;;;;;;;4.17;3.77;;;;;;;19.68;58.31;98709.41;5083064;28;20510;-76
2021/10/03 09:33:22;;;;;;;5.00;4.50;;;;;;;19.88;60.54;98727.22;5084035;28;20431;-74
2021/10/03 09:36:01;;;;;;;6.80;4.60;;;;;;;19.66;60.95;98735.13;5070986;28;20502;-75
2021/10/03 09:38:29;;;;;;;4.33;3.70;;;;;;;19.63;61.12;98728.25;5063178;28;20457;-76
2021/10/03 09:41:01;;;;;;;6.20;3.80;;;;;;;19.47;62.13;98729.00;5061852;28;20507;-74
2021/10/03 09:43:44;;;;;;;4.43;3.90;;;;;;;19.40;61.40;98723.69;5063028;28;20424;-75
2021/10/03 09:46:12;;;;;;;4.77;4.30;;;;;;;19.29;62.50;98736.19;5060233;28;20812;-75
2021/10/03 09:48:49;;;;;;;4.93;4.43;;;;;;;19.20;63.00;98740.31;5060567;28;20448;-75
2021/10/03 09:51:18;;;;;;;7.33;4.90;;;;;;;19.29;63.21;98717.22;5061853;28;20490;-76
2021/10/03 09:53:45;;;;;;;4.97;4.23;;;;;;;19.31;62.62;98722.41;5063465;28;20436;-75
2021/10/03 09:56:12;;;;;;;4.70;4.07;;;;;;;19.59;62.45;98718.16;5062745;28;20465;-75
2021/10/03 09:58:40;;;;;;;6.03;4.70;;;;;;;19.64;60.71;98720.97;5062912;28;20456;-74
2021/10/03 10:01:07;;;;;;;4.70;4.20;;;;;;;19.90;60.89;98727.81;5062414;28;20480;-75
2021/10/03 10:03:36;;;;;;;5.73;4.40;;;;;;;19.81;60.07;98715.66;5064167;28;20421;-75
2021/10/03 10:06:03;;;;;;;5.17;4.23;;;;;;;19.85;61.04;98717.66;5061723;28;20471;-74
2021/10/03 10:08:31;;;;;;;5.40;4.53;;;;;;;20.08;60.12;98721.38;5063228;28;20515;-75
2021/10/03 10:11:04;;;;;;;5.13;3.70;;;;;;;20.03;58.29;98703.13;5064046;28;20477;-75
2021/10/03 10:13:31;;;;;;;4.60;4.10;;;;;;;20.26;57.91;98710.38;5063157;28;20433;-75
2021/10/03 10:16:31;;;;;;;5.43;4.70;;;;;;;20.30;57.86;98716.94;5063165;28;20475;-75
2021/10/03 10:19:28;;;;;;;4.70;4.10;;;;;;;20.36;58.73;98722.47;5062860;28;20696;-75
2021/10/03 10:22:36;;;;;;;6.50;4.30;;;;;;;20.39;58.00;98717.38;5054934;28;20472;-74
2021/10/03 10:25:23;;;;;;;4.60;4.00;;;;;;;20.40;57.40;98721.75;5063544;28;21079;-75
2021/10/03 10:28:05;;;;;;;4.90;4.00;;;;;;;20.45;58.23;98727.28;5051359;28;20692;-74
2021/10/03 10:30:32;;;;;;;6.17;4.70;;;;;;;20.56;57.74;98732.91;5066579;28;20472;-74
2021/10/03 10:33:16;;;;;;;6.30;4.13;;;;;;;20.51;57.92;98730.91;5066560;28;20433;-75
2021/10/03 10:35:44;;;;;;;4.47;4.03;;;;;;;20.10;59.73;98736.38;5063038;28;20472;-76
2021/10/03 10:38:19;;;;;;;6.20;4.80;;;;;;;20.02;60.82;98733.22;5062398;28;20480;-76
2021/10/03 10:40:49;;;;;;;4.50;4.10;;;;;;;19.66;62.04;98735.94;5061319;28;20476;-76
2021/10/03 10:43:39;;;;;;;6.80;5.03;;;;;;;19.67;62.55;98737.59;5064131;28;20446;-75
2021/10/03 10:46:06;;;;;;;7.13;4.33;;;;;;;19.56;62.10;98749.25;5077738;28;20472;-76
2021/10/03 10:48:32;;;;;;;5.10;4.57;;;;;;;19.51;63.03;98747.28;5081820;28;20443;-75
2021/10/03 10:51:19;;;;;;;4.70;4.23;;;;;;;19.45;62.82;98744.69;5074245;28;20905;-76
2021/10/03 10:53:45;;;;;;;5.53;4.90;;;;;;;19.43;64.15;98750.31;5061911;28;20485;-76
2021/10/03 10:56:15;;;;;;;5.33;4.70;;;;;;;19.56;63.90;98741.97;5060650;28;20551;-75
2021/10/03 10:59:03;;;;;;;8.07;4.93;;;;;;;19.49;64.17;98737.72;5061615;28;20523;-76
2021/10/03 11:01:40;;;;;;;5.83;4.30;;;;;;;19.16;63.32;98739.09;5061333;28;20511;-75
2021/10/03 11:04:09;;;;;;;8.73;5.40;;;;;;;19.54;65.86;98735.13;5061482;28;20472;-75
2021/10/03 11:07:01;;;;;;;6.13;4.87;;;;;;;19.68;64.36;98735.69;5062140;28;20476;-75
2021/10/03 11:09:32;;;;;;;6.17;4.60;;;;;;;19.75;63.74;98741.84;5062836;28;20460;-76
2021/10/03 11:12:10;;;;;;;5.50;4.50;;;;;;;19.86;63.72;98732.03;5060019;28;20504;-75
2021/10/03 11:14:41;;;;;;;7.13;4.70;;;;;;;19.81;63.67;98737.34;5062905;28;20522;-75
2021/10/03 11:17:13;;;;;;;4.00;3.60;;;;;;;19.85;63.76;98730.41;5060401;28;20472;-75
2021/10/03 11:19:50;;;;;;;4.73;4.23;;;;;;;19.91;63.61;98732.16;5060418;28;20445;-75
2021/10/03 11:22:20;;;;;;;5.53;4.90;;;;;;;19.85;64.31;98717.66;5060801;28;20536;-74
2021/10/03 11:24:49;;;;;;;4.53;3.90;;;;;;;20.07;63.42;98717.03;5061369;28;20475;-75
2021/10/03 11:27:19;;;;;;;6.00;4.53;;;;;;;20.37;62.38;98726.84;5059570;28;20476;-75
2021/10/03 11:29:47;;;;;;;5.40;4.90;;;;;;;20.24;61.69;98712.50;5060718;28;20445;-75
2021/10/03 11:32:15;;;;;;;6.90;4.97;;;;;;;20.10;62.23;98709.25;5061171;28;20511;-74
2021/10/03 11:34:44;;;;;;;5.80;5.30;;;;;;;20.41;63.42;98717.16;5059762;28;20484;-75
2021/10/03 11:37:13;;;;;;;5.03;4.17;;;;;;;20.32;61.39;98709.38;5056211;28;20504;-74
2021/10/03 11:39:46;;;;;;;4.50;4.03;;;;;;;20.64;60.52;98711.66;5061099;28;20540;-74